createdAt,value
2022-10-06T00:01:13.992Z,100339.89
2022-10-06T00:03:45.998Z,100336.27
2022-10-06T00:06:17.765Z,100336.48
2022-10-06T00:08:46.574Z,100335.97
2022-10-06T00:11:17.293Z,100331.83
2022-10-06T00:13:44.976Z,100332.02
2022-10-06T00:16:17.369Z,100330.31
2022-10-06T00:18:45.109Z,100323.64
2022-10-06T00:21:12.881Z,100323.65
2022-10-06T00:23:40.633Z,100323.12
2022-10-06T00:26:16.572Z,100323.30
2022-10-06T00:28:47.923Z,100326.26
2022-10-06T00:31:17.269Z,100323.66
2022-10-06T00:33:46.393Z,100323.20
2022-10-06T00:36:13.912Z,100327.26
2022-10-06T00:38:41.590Z,100323.65
2022-10-06T00:41:13.932Z,100326.62
2022-10-06T00:43:41.400Z,100328.90
2022-10-06T00:46:24.237Z,100327.71
2022-10-06T00:49:11.216Z,100328.98
2022-10-06T00:51:44.315Z,100325.91
2022-10-06T00:54:13.586Z,100327.88
2022-10-06T00:56:41.378Z,100326.69
2022-10-06T00:59:13.012Z,100326.68
2022-10-06T01:01:48.637Z,100327.94
2022-10-06T01:04:17.961Z,100326.29
2022-10-06T01:06:58.441Z,100324.45
2022-10-06T01:09:28.451Z,100331.64
2022-10-06T01:12:00.597Z,100331.15
2022-10-06T01:14:29.184Z,100332.94
2022-10-06T01:17:02.780Z,100333.87
2022-10-06T01:19:44.096Z,100333.58
2022-10-06T01:22:15.641Z,100336.89
2022-10-06T01:24:46.421Z,100336.38
2022-10-06T01:27:16.716Z,100329.92
2022-10-06T01:29:44.609Z,100334.48
2022-10-06T01:32:12.166Z,100334.33
2022-10-06T01:34:39.776Z,100334.20
2022-10-06T01:37:07.370Z,100340.85
2022-10-06T01:39:34.916Z,100336.69
2022-10-06T01:42:03.404Z,100336.33
2022-10-06T01:44:31.010Z,100338.23
2022-10-06T01:46:58.525Z,100341.55
2022-10-06T01:49:26.077Z,100338.80
2022-10-06T01:51:53.607Z,100341.45
2022-10-06T01:54:21.178Z,100341.63
2022-10-06T01:56:48.754Z,100342.15
2022-10-06T01:59:16.289Z,100342.14
2022-10-06T02:01:43.937Z,100340.95
2022-10-06T02:04:11.526Z,100341.01
2022-10-06T02:06:39.169Z,100337.39
2022-10-06T02:09:06.803Z,100338.31
2022-10-06T02:11:35.172Z,100339.54
2022-10-06T02:14:02.957Z,100341.63
2022-10-06T02:16:31.128Z,100343.87
2022-10-06T02:18:58.662Z,100345.58
2022-10-06T02:21:26.292Z,100345.90
2022-10-06T02:23:53.926Z,100343.09
2022-10-06T02:26:21.564Z,100346.86
2022-10-06T02:28:51.900Z,100341.64
2022-10-06T02:31:19.968Z,100344.75
2022-10-06T02:33:48.105Z,100347.00
2022-10-06T02:36:18.943Z,100347.64
2022-10-06T02:38:46.570Z,100350.45
2022-10-06T02:41:14.078Z,100355.14
2022-10-06T02:43:41.647Z,100355.11
2022-10-06T02:46:13.662Z,100354.20
2022-10-06T02:48:41.600Z,100352.60
2022-10-06T02:51:15.712Z,100358.86
2022-10-06T02:53:45.431Z,100359.22
2022-10-06T02:56:16.173Z,100361.14
2022-10-06T02:58:45.914Z,100362.17
2022-10-06T03:01:21.332Z,100364.96
2022-10-06T03:03:48.935Z,100365.31
2022-10-06T03:06:25.543Z,100369.12
2022-10-06T03:08:53.017Z,100371.91
2022-10-06T03:11:26.023Z,100369.48
2022-10-06T03:13:54.174Z,100367.42
2022-10-06T03:16:32.361Z,100369.20
2022-10-06T03:19:00.966Z,100368.36
2022-10-06T03:21:31.814Z,100369.95
2022-10-06T03:23:59.796Z,100368.35
2022-10-06T03:26:31.036Z,100368.52
2022-10-06T03:29:00.749Z,100371.11
2022-10-06T03:31:29.587Z,100376.14
2022-10-06T03:33:58.156Z,100375.98
2022-10-06T03:36:29.663Z,100377.50
2022-10-06T03:38:57.246Z,100381.15
2022-10-06T03:41:27.846Z,100384.46
2022-10-06T03:43:58.086Z,100389.31
2022-10-06T03:46:29.428Z,100394.55
2022-10-06T03:48:57.576Z,100396.45
2022-10-06T03:51:45.124Z,100395.64
2022-10-06T03:54:12.798Z,100401.71
2022-10-06T03:56:41.599Z,100402.95
2022-10-06T03:59:12.170Z,100405.02
2022-10-06T04:01:43.241Z,100407.63
2022-10-06T04:04:12.814Z,100404.30
2022-10-06T04:06:43.281Z,100404.80
2022-10-06T04:09:15.675Z,100403.05
2022-10-06T04:11:44.933Z,100412.97
2022-10-06T04:14:15.375Z,100416.10
2022-10-06T04:16:45.734Z,100416.11
2022-10-06T04:19:15.664Z,100418.54
2022-10-06T04:21:46.810Z,100423.40
2022-10-06T04:24:17.205Z,100422.65
2022-10-06T04:26:46.538Z,100424.89
2022-10-06T04:29:14.912Z,100426.21
2022-10-06T04:31:43.620Z,100427.25
2022-10-06T04:34:13.568Z,100430.71
2022-10-06T04:36:42.988Z,100438.36
2022-10-06T04:39:13.528Z,100435.90
2022-10-06T04:41:42.558Z,100436.40
2022-10-06T04:44:10.273Z,100436.42
2022-10-06T04:46:45.551Z,100435.15
2022-10-06T04:49:19.623Z,100438.38
2022-10-06T04:51:49.838Z,100438.76
2022-10-06T04:54:19.421Z,100442.81
2022-10-06T04:56:47.188Z,100443.24
2022-10-06T04:59:14.762Z,100445.58
2022-10-06T05:01:42.268Z,100444.20
2022-10-06T05:04:09.812Z,100448.23
2022-10-06T05:06:42.223Z,100451.41
2022-10-06T05:09:12.399Z,100458.59
2022-10-06T05:11:40.100Z,100460.86
2022-10-06T05:14:07.636Z,100466.48
2022-10-06T05:16:38.182Z,100466.86
2022-10-06T05:19:06.492Z,100471.24
2022-10-06T05:21:34.343Z,100469.56
2022-10-06T05:24:02.921Z,100470.73
2022-10-06T05:26:33.773Z,100477.09
2022-10-06T05:29:02.288Z,100478.21
2022-10-06T05:31:33.001Z,100479.54
2022-10-06T05:34:00.835Z,100482.59
2022-10-06T05:36:31.247Z,100482.48
2022-10-06T05:39:01.151Z,100486.70
2022-10-06T05:41:31.446Z,100487.80
2022-10-06T05:43:59.731Z,100494.65
2022-10-06T05:46:35.361Z,100495.77
2022-10-06T05:49:11.601Z,100494.99
2022-10-06T05:51:42.103Z,100498.05
2022-10-06T05:54:11.033Z,100508.48
2022-10-06T05:56:41.918Z,100508.05
2022-10-06T05:59:09.770Z,100509.54
2022-10-06T06:01:47.109Z,100511.01
2022-10-06T06:04:16.320Z,100512.80
2022-10-06T06:06:52.521Z,100523.51
2022-10-06T06:09:22.772Z,100525.11
2022-10-06T06:11:55.094Z,100537.67
2022-10-06T06:17:13.793Z,100539.35
2022-10-06T06:19:41.396Z,100538.18
2022-10-06T06:22:09.379Z,100537.35
2022-10-06T06:24:37.066Z,100540.84
2022-10-06T06:27:08.504Z,100542.42
2022-10-06T06:29:36.089Z,100540.36
2022-10-06T06:32:28.863Z,100531.90
2022-10-06T06:34:57.457Z,100543.56
2022-10-06T06:37:58.889Z,100546.05
2022-10-06T06:40:31.933Z,100551.66
2022-10-06T06:43:14.939Z,100554.63
2022-10-06T06:45:42.679Z,100562.80
2022-10-06T06:48:15.576Z,100558.36
2022-10-06T06:50:44.093Z,100559.98
2022-10-06T06:56:31.059Z,100570.83
2022-10-06T06:59:11.125Z,100576.60
2022-10-06T07:01:45.950Z,100581.86
2022-10-06T07:04:16.485Z,100588.84
2022-10-06T07:09:44.837Z,100592.69
2022-10-06T07:12:12.528Z,100593.05
2022-10-06T07:15:00.958Z,100604.02
2022-10-06T07:17:44.570Z,100608.92
2022-10-06T07:20:27.572Z,100603.87
2022-10-06T07:23:11.330Z,100615.95
2022-10-06T07:25:38.970Z,100620.43
2022-10-06T07:28:07.685Z,100619.20
2022-10-06T07:30:40.440Z,100629.16
2022-10-06T07:33:09.147Z,100640.23
2022-10-06T07:35:39.137Z,100641.98
2022-10-06T07:38:12.702Z,100641.42
2022-10-06T07:40:46.184Z,100648.05
2022-10-06T07:43:18.534Z,100645.39
2022-10-06T07:45:47.060Z,100647.33
2022-10-06T07:48:18.742Z,100648.88
2022-10-06T07:50:49.479Z,100654.83
2022-10-06T07:53:18.598Z,100666.26
2022-10-06T07:55:47.787Z,100657.77
2022-10-06T07:58:18.380Z,100653.71
2022-10-06T08:00:49.006Z,100656.85
2022-10-06T08:03:18.439Z,100655.45
2022-10-06T08:05:48.236Z,100658.97
2022-10-06T08:08:25.227Z,100659.52
2022-10-06T08:11:00.320Z,100666.98
2022-10-06T08:13:32.139Z,100664.57
2022-10-06T08:16:17.886Z,100666.23
2022-10-06T08:18:54.328Z,100665.45
2022-10-06T08:21:30.690Z,100669.30
2022-10-06T08:24:12.908Z,100680.13
2022-10-06T08:26:41.159Z,100685.73
2022-10-06T08:29:20.887Z,100685.70
2022-10-06T08:31:49.572Z,100702.17
2022-10-06T08:34:17.382Z,100704.98
2022-10-06T08:37:08.658Z,100707.75
2022-10-06T08:39:41.985Z,100707.90
2022-10-06T08:42:18.698Z,100720.05
2022-10-06T08:45:12.996Z,100732.09
2022-10-06T08:48:03.469Z,100731.14
2022-10-06T08:50:41.891Z,100739.55
2022-10-06T08:53:28.442Z,100742.98
2022-10-06T08:56:22.937Z,100749.23
2022-10-06T08:59:04.428Z,100750.89
2022-10-06T09:01:49.639Z,100753.61
2022-10-06T09:04:28.300Z,100754.34
2022-10-06T09:07:16.765Z,100760.13
2022-10-06T09:09:58.973Z,100759.16
2022-10-06T09:12:42.552Z,100762.65
2022-10-06T09:15:42.087Z,100763.30
2022-10-06T09:18:17.937Z,100767.61
2022-10-06T09:20:47.131Z,100772.94
2022-10-06T09:23:39.891Z,100773.92
2022-10-06T09:26:22.221Z,100779.52
2022-10-06T09:28:52.547Z,100783.95
2022-10-06T09:31:29.606Z,100783.59
2022-10-06T09:34:09.410Z,100790.14
2022-10-06T09:39:37.016Z,100795.09
2022-10-06T09:42:17.362Z,100800.49
2022-10-06T09:44:55.853Z,100805.65
2022-10-06T09:47:46.428Z,100811.50
2022-10-06T09:50:23.781Z,100809.20
2022-10-06T09:53:03.708Z,100813.64
2022-10-06T09:55:37.688Z,100820.73
2022-10-06T09:58:24.491Z,100821.23
2022-10-06T10:01:01.280Z,100827.91
2022-10-06T10:04:08.525Z,100828.19
2022-10-06T10:06:35.413Z,100839.64
2022-10-06T10:09:21.862Z,100836.84
2022-10-06T10:12:26.519Z,100849.52
2022-10-06T10:14:56.774Z,100838.64
2022-10-06T10:17:39.332Z,100848.38
2022-10-06T10:20:29.505Z,100850.65
2022-10-06T10:23:43.045Z,100857.00
2022-10-06T10:26:33.293Z,100863.02
2022-10-06T10:29:16.958Z,100867.99
2022-10-06T10:32:19.641Z,100869.64
2022-10-06T10:34:56.776Z,100880.64
2022-10-06T10:37:29.866Z,100874.19
2022-10-06T10:40:01.015Z,100883.51
2022-10-06T10:42:52.609Z,100884.52
2022-10-06T10:45:36.388Z,100889.30
2022-10-06T10:48:18.427Z,100893.59
2022-10-06T10:51:06.235Z,100894.85
2022-10-06T10:53:43.007Z,100892.55
2022-10-06T11:33:03.315Z,100933.46
2022-10-06T11:35:37.116Z,100941.25
2022-10-06T11:38:28.101Z,100938.06
2022-10-06T11:41:14.879Z,100939.38
2022-10-06T11:44:03.481Z,100943.02
2022-10-06T11:46:53.729Z,100937.36
2022-10-06T11:49:40.183Z,100947.15
2022-10-06T11:52:08.678Z,100955.77
2022-10-06T11:54:39.793Z,100951.83
2022-10-06T11:57:37.995Z,100952.30
2022-10-06T12:00:08.992Z,100961.95
2022-10-06T12:02:39.886Z,100958.06
2022-10-06T12:08:10.735Z,100964.60
2022-10-06T12:10:57.376Z,100964.20
2022-10-06T12:17:11.541Z,100977.52
2022-10-06T12:20:17.644Z,100981.30
2022-10-06T12:22:52.403Z,100990.87
2022-10-06T12:26:05.834Z,100995.25
2022-10-06T12:28:49.190Z,101003.05
2022-10-06T12:31:43.433Z,101004.20
2022-10-06T12:34:43.247Z,101008.86
2022-10-06T12:37:32.753Z,101012.58
2022-10-06T12:40:34.891Z,101012.69
2022-10-06T12:43:25.631Z,101010.85
2022-10-06T12:46:17.270Z,101010.80
2022-10-06T12:49:12.274Z,101013.75
2022-10-06T12:51:46.228Z,101017.39
2022-10-06T12:54:38.307Z,101023.98
2022-10-06T12:57:28.090Z,101029.39
2022-10-06T12:59:56.167Z,101025.52
2022-10-06T13:02:27.105Z,101030.36
2022-10-06T13:04:57.424Z,101035.01
2022-10-06T13:07:31.675Z,101032.79
2022-10-06T13:10:18.307Z,101040.66
2022-10-06T13:12:51.238Z,101036.08
2022-10-06T13:15:24.036Z,101041.02
2022-10-06T13:17:56.320Z,101036.53
2022-10-06T13:20:23.904Z,101038.55
2022-10-06T13:23:12.643Z,101040.02
2022-10-06T13:25:45.548Z,101044.16
2022-10-06T13:28:45.279Z,101057.55
2022-10-06T13:31:34.961Z,101059.29
2022-10-06T13:34:10.272Z,101065.73
2022-10-06T13:36:42.977Z,101066.98
2022-10-06T13:39:20.281Z,101068.89
2022-10-06T13:41:52.313Z,101073.91
2022-10-06T13:44:39.779Z,101079.66
2022-10-06T13:47:15.939Z,101084.38
2022-10-06T13:49:52.967Z,101085.07
2022-10-06T13:52:28.890Z,101089.27
2022-10-06T13:54:59.084Z,101093.91
2022-10-06T13:57:49.058Z,101090.48
2022-10-06T14:00:26.957Z,101093.58
2022-10-06T14:03:06.513Z,101092.00
2022-10-06T14:05:41.698Z,101097.09
2022-10-06T14:08:12.419Z,101108.14
2022-10-06T14:10:39.960Z,101104.92
2022-10-06T14:13:17.787Z,101109.93
2022-10-06T14:16:01.833Z,101111.37
2022-10-06T14:18:39.973Z,101115.44
2022-10-06T14:21:39.513Z,101113.55
2022-10-06T14:24:29.082Z,101115.10
2022-10-06T14:27:01.671Z,101123.88
2022-10-06T14:29:29.378Z,101126.54
2022-10-06T14:34:46.979Z,101125.83
2022-10-06T14:37:17.363Z,101131.69
2022-10-06T14:39:45.931Z,101136.77
2022-10-06T14:42:15.390Z,101143.71
2022-10-06T14:44:43.174Z,101152.71
2022-10-06T14:47:10.738Z,101152.46
2022-10-06T14:49:38.297Z,101158.36
2022-10-06T14:52:06.988Z,101153.59
2022-10-06T14:54:35.136Z,101156.05
2022-10-06T14:57:02.704Z,101160.27
2022-10-06T14:59:31.469Z,101157.60
2022-10-06T15:01:59.028Z,101159.02
2022-10-06T15:04:27.915Z,101161.93
2022-10-06T15:07:10.508Z,101164.17
2022-10-06T15:09:38.081Z,101169.21
2022-10-06T15:12:05.625Z,101172.27
2022-10-06T15:14:34.919Z,101173.69
2022-10-06T15:17:03.317Z,101174.19
2022-10-06T15:19:30.971Z,101178.23
2022-10-06T15:21:58.511Z,101183.64
2022-10-06T15:24:26.122Z,101189.39
2022-10-06T15:27:09.716Z,101189.70
2022-10-06T15:29:37.376Z,101192.81
2022-10-06T15:32:06.325Z,101191.73
2022-10-06T15:34:36.842Z,101202.42
2022-10-06T15:37:05.108Z,101205.04
2022-10-06T15:39:36.302Z,101203.26
2022-10-06T15:42:04.637Z,101207.08
2022-10-06T15:44:34.729Z,101210.33
2022-10-06T15:47:05.112Z,101211.73
2022-10-06T15:49:39.782Z,101220.52
2022-10-06T15:52:09.216Z,101224.35
2022-10-06T15:54:39.508Z,101228.56
2022-10-06T15:57:11.599Z,101233.84
2022-10-06T15:59:41.699Z,101239.64
2022-10-06T16:02:15.804Z,101241.48
2022-10-06T16:04:44.817Z,101243.28
2022-10-06T16:07:17.563Z,101250.77
2022-10-06T16:09:47.717Z,101253.78
2022-10-06T16:12:21.335Z,101260.52
2022-10-06T16:14:48.921Z,101261.59
2022-10-06T16:17:17.824Z,101265.42
2022-10-06T16:19:46.837Z,101264.15
2022-10-06T16:22:17.874Z,101271.27
2022-10-06T16:24:45.437Z,101280.42
2022-10-06T16:27:15.105Z,101286.05
2022-10-06T16:29:42.713Z,101294.09
2022-10-06T16:32:10.748Z,101302.44
2022-10-06T16:34:38.408Z,101304.27
2022-10-06T16:37:06.195Z,101307.36
2022-10-06T16:39:33.800Z,101315.34
2022-10-06T16:42:01.405Z,101316.29
2022-10-06T16:44:29.265Z,101324.41
2022-10-06T16:46:56.941Z,101328.44
2022-10-06T16:49:24.647Z,101331.44
2022-10-06T16:51:52.517Z,101333.92
2022-10-06T16:54:20.875Z,101338.52
2022-10-06T16:56:53.673Z,101337.11
2022-10-06T16:59:23.224Z,101342.20
2022-10-06T17:01:50.954Z,101339.58
2022-10-06T17:04:21.714Z,101347.95
2022-10-06T17:06:57.062Z,101350.52
2022-10-06T17:09:27.421Z,101352.41
2022-10-06T17:11:56.176Z,101355.15
2022-10-06T17:14:24.360Z,101357.36
2022-10-06T17:19:53.774Z,101364.23
2022-10-06T17:22:21.573Z,101364.30
2022-10-06T17:24:49.151Z,101370.51
2022-10-06T17:27:16.757Z,101370.10
2022-10-06T17:29:44.589Z,101371.07
2022-10-06T17:32:12.201Z,101373.95
2022-10-06T17:34:40.632Z,101377.54
2022-10-06T17:37:08.149Z,101377.63
2022-10-06T17:39:35.739Z,101377.72
2022-10-06T17:42:03.510Z,101378.50
2022-10-06T17:44:31.768Z,101381.02
2022-10-06T17:47:00.708Z,101383.02
2022-10-06T17:49:32.566Z,101384.13
2022-10-06T17:52:00.747Z,101385.40
2022-10-06T17:54:28.576Z,101389.80
2022-10-06T17:56:57.924Z,101392.77
2022-10-06T17:59:31.042Z,101395.77
2022-10-06T18:02:02.489Z,101396.15
2022-10-06T18:04:31.025Z,101395.14
2022-10-06T18:06:58.578Z,101395.52
2022-10-06T18:09:26.286Z,101394.69
2022-10-06T18:11:58.548Z,101398.56
2022-10-06T18:14:30.114Z,101399.49
2022-10-06T18:17:00.840Z,101402.69
2022-10-06T18:19:34.042Z,101410.73
2022-10-06T18:22:10.802Z,101416.02
2022-10-06T18:24:39.885Z,101417.80
2022-10-06T18:27:08.213Z,101423.05
2022-10-06T18:29:38.294Z,101422.36
2022-10-06T18:37:42.620Z,101427.45
2022-10-06T18:40:11.116Z,101428.52
2022-10-06T18:42:39.209Z,101432.75
2022-10-06T18:45:24.238Z,101431.73
2022-10-06T18:48:07.765Z,101432.13
2022-10-06T18:50:35.486Z,101443.33
2022-10-06T18:53:04.347Z,101441.63
2022-10-06T18:55:32.615Z,101440.28
2022-10-06T18:58:00.192Z,101439.63
2022-10-06T19:00:27.758Z,101442.77
2022-10-06T19:02:56.785Z,101443.83
2022-10-06T19:05:24.502Z,101444.35
2022-10-06T19:07:53.703Z,101450.98
2022-10-06T19:10:21.791Z,101453.77
2022-10-06T19:12:49.742Z,101456.92
2022-10-06T19:15:20.687Z,101459.05
2022-10-06T19:17:49.650Z,101458.38
2022-10-06T19:20:18.677Z,101461.70
2022-10-06T19:22:47.705Z,101465.55
2022-10-06T19:25:18.918Z,101466.95
2022-10-06T19:27:47.167Z,101468.00
2022-10-06T19:30:15.754Z,101471.15
2022-10-06T19:32:43.448Z,101476.73
2022-10-06T19:35:11.122Z,101475.36
2022-10-06T19:37:39.475Z,101480.94
2022-10-06T19:40:08.657Z,101482.52
2022-10-06T19:42:52.380Z,101482.53
2022-10-06T19:45:21.088Z,101484.11
2022-10-06T19:47:48.749Z,101484.83
2022-10-06T19:50:17.419Z,101484.14
2022-10-06T19:52:45.471Z,101488.50
2022-10-06T19:55:13.678Z,101490.23
2022-10-06T19:57:41.844Z,101491.63
2022-10-06T20:00:10.379Z,101494.23
2022-10-06T20:02:42.130Z,101496.67
2022-10-06T20:05:19.954Z,101503.97
2022-10-06T20:07:47.924Z,101503.48
2022-10-06T20:10:15.553Z,101503.66
2022-10-06T20:12:43.237Z,101506.27
2022-10-06T20:15:12.660Z,101509.23
2022-10-06T20:17:42.304Z,101513.58
2022-10-06T20:20:10.476Z,101515.33
2022-10-06T20:22:38.048Z,101515.16
2022-10-06T20:25:07.046Z,101513.58
2022-10-06T20:27:34.683Z,101519.16
2022-10-06T20:30:02.473Z,101519.33
2022-10-06T20:32:30.198Z,101517.59
2022-10-06T20:34:58.085Z,101517.23
2022-10-06T20:37:25.676Z,101517.94
2022-10-06T20:40:09.239Z,101519.51
2022-10-06T20:42:36.915Z,101521.77
2022-10-06T20:45:04.843Z,101524.19
2022-10-06T20:47:32.815Z,101524.73
2022-10-06T20:50:00.602Z,101526.46
2022-10-06T20:52:28.167Z,101529.59
2022-10-06T20:54:55.760Z,101532.03
2022-10-06T20:57:23.346Z,101534.98
2022-10-06T20:59:52.468Z,101538.28
2022-10-06T21:02:20.129Z,101536.20
2022-10-06T21:04:47.822Z,101536.71
2022-10-06T21:07:15.444Z,101538.29
2022-10-06T21:09:43.227Z,101541.73
2022-10-06T21:12:10.820Z,101542.59
2022-10-06T21:14:42.144Z,101543.30
2022-10-06T21:17:09.865Z,101543.30
2022-10-06T21:19:37.701Z,101544.15
2022-10-06T21:22:05.798Z,101542.42
2022-10-06T21:24:33.391Z,101539.30
2022-10-06T21:27:01.509Z,101537.05
2022-10-06T21:29:29.130Z,101536.52
2022-10-06T21:31:56.761Z,101537.20
2022-10-06T21:34:24.416Z,101541.55
2022-10-06T21:36:52.079Z,101548.50
2022-10-06T21:39:19.695Z,101549.73
2022-10-06T21:41:47.319Z,101547.98
2022-10-06T21:44:17.199Z,101547.45
2022-10-06T21:46:53.331Z,101546.23
2022-10-06T21:49:25.052Z,101550.23
2022-10-06T21:51:55.548Z,101545.70
2022-10-06T21:54:23.793Z,101547.61
2022-10-06T21:56:52.326Z,101550.73
2022-10-06T21:59:20.112Z,101550.73
2022-10-06T22:01:50.322Z,101552.65
2022-10-06T22:04:18.928Z,101551.42
2022-10-06T22:06:51.642Z,101551.27
2022-10-06T22:09:20.786Z,101547.09
2022-10-06T22:11:49.111Z,101545.87
2022-10-06T22:14:19.164Z,101550.73
2022-10-06T22:16:47.316Z,101551.95
2022-10-06T22:19:16.315Z,101549.67
2022-10-06T22:21:46.378Z,101543.59
2022-10-06T22:24:17.038Z,101546.88
2022-10-06T22:26:45.708Z,101544.27
2022-10-06T22:29:15.372Z,101546.69
2022-10-06T22:31:45.038Z,101549.83
2022-10-06T22:34:15.107Z,101549.11
2022-10-06T22:36:42.875Z,101551.89
2022-10-06T22:39:10.977Z,101549.63
2022-10-06T22:41:38.748Z,101549.44
2022-10-06T22:44:06.420Z,101547.17
2022-10-06T22:46:36.076Z,101543.00
2022-10-06T22:49:05.315Z,101539.52
2022-10-06T22:51:33.496Z,101538.98
2022-10-06T22:54:01.558Z,101535.86
2022-10-06T22:56:31.895Z,101539.15
2022-10-06T22:59:00.547Z,101535.51
2022-10-06T23:01:38.179Z,101534.29
2022-10-06T23:04:05.835Z,101541.92
2022-10-06T23:06:33.647Z,101535.49
2022-10-06T23:09:03.507Z,101535.14
2022-10-06T23:11:31.213Z,101535.98
2022-10-06T23:14:00.564Z,101533.38
2022-10-06T23:16:28.330Z,101537.88
2022-10-06T23:18:56.017Z,101541.00
2022-10-06T23:21:27.210Z,101539.45
2022-10-06T23:23:58.395Z,101545.52
2022-10-06T23:26:26.597Z,101546.73
2022-10-06T23:28:59.946Z,101548.11
2022-10-06T23:31:29.230Z,101546.54
2022-10-06T23:33:57.407Z,101548.27
2022-10-06T23:36:25.042Z,101549.45
2022-10-06T23:38:52.649Z,101552.38
2022-10-06T23:41:20.421Z,101552.71
2022-10-06T23:43:48.164Z,101555.66
2022-10-06T23:46:15.974Z,101553.05
2022-10-06T23:48:43.782Z,101554.08
2022-10-06T23:51:14.013Z,101558.56
2022-10-06T23:53:42.916Z,101556.29
2022-10-06T23:56:11.292Z,101553.66
2022-10-06T23:58:39.148Z,101553.11
